Time;durP1;ratioP1;P1;durP2;ratioP2;P2;SDS_P1;SDS_P2;PMS_P1;PMS_P2;Temp;Humidity;BMP_temperature;BMP_pressure;BME280_temperature;BME280_humidity;BME280_pressure;Samples;Min_cycle;Max_cycle;Signal;HPM_P1;HPM_P2
2021/12/12 00:01:45;;;;;;;13.25;4.90;;;;;;;17.36;43.65;102023.63;5004932;28;20345;-52
2021/12/12 00:04:15;;;;;;;12.43;5.18;;;;;;;17.35;44.21;102011.22;5005321;28;21123;-48
2021/12/12 00:06:52;;;;;;;11.60;5.10;;;;;;;17.35;44.19;102016.56;5005800;28;20057;-49
2021/12/12 00:09:41;;;;;;;10.13;4.97;;;;;;;17.31;44.55;102007.91;5006230;28;20081;-48
2021/12/12 00:12:16;;;;;;;10.30;5.22;;;;;;;17.31;43.88;102017.78;5002119;28;20040;-49
2021/12/12 00:14:43;;;;;;;10.52;4.70;;;;;;;17.29;44.37;102012.56;5003724;28;20161;-51
2021/12/12 00:17:11;;;;;;;9.80;4.38;;;;;;;17.27;44.22;102009.97;5006285;28;20113;-52
2021/12/12 00:19:39;;;;;;;10.93;4.50;;;;;;;17.26;44.01;102002.94;5008897;28;20064;-53
2021/12/12 00:22:10;;;;;;;16.52;5.95;;;;;;;17.24;44.45;102002.19;5004733;28;20069;-52
2021/12/12 00:24:38;;;;;;;11.30;4.97;;;;;;;17.23;43.94;101995.13;5002773;28;20133;-52
2021/12/12 00:27:07;;;;;;;9.88;4.57;;;;;;;17.21;43.91;101997.09;5001715;28;20058;-52
2021/12/12 00:29:34;;;;;;;9.30;4.55;;;;;;;17.19;44.41;101990.97;5004191;28;20600;-51
2021/12/12 00:32:06;;;;;;;10.02;4.60;;;;;;;17.19;43.91;101984.78;5007976;28;20057;-49
2021/12/12 00:34:36;;;;;;;9.90;4.63;;;;;;;17.17;44.40;101984.91;5005356;28;20145;-51
2021/12/12 00:37:08;;;;;;;10.75;4.45;;;;;;;17.16;44.06;101985.84;5005435;28;20132;-48
2021/12/12 00:39:38;;;;;;;9.30;4.28;;;;;;;17.15;44.71;101988.66;5004278;28;20133;-52
2021/12/12 00:42:11;;;;;;;9.00;4.50;;;;;;;17.13;44.78;101978.06;5002913;28;20125;-51
2021/12/12 00:44:40;;;;;;;11.05;4.68;;;;;;;17.12;44.60;101979.03;5004298;28;20057;-51
2021/12/12 00:47:09;;;;;;;10.15;4.28;;;;;;;17.11;44.63;101976.47;5003632;28;20056;-48
2021/12/12 00:49:38;;;;;;;9.35;4.35;;;;;;;17.10;44.59;101974.78;5005993;28;20062;-48
2021/12/12 00:52:07;;;;;;;13.25;5.15;;;;;;;17.08;44.46;101968.69;5011845;28;20053;-52
2021/12/12 00:54:34;;;;;;;10.80;4.60;;;;;;;17.07;44.82;101977.69;5009304;28;20058;-52
2021/12/12 00:57:08;;;;;;;13.30;5.50;;;;;;;17.05;44.71;101974.31;5009891;28;20381;-48
2021/12/12 00:59:35;;;;;;;;;;;;;;;17.01;44.36;101973.69;5012456;28;20054;-48
2021/12/12 01:02:08;;;;;;;8.52;4.32;;;;;;;17.03;44.65;101974.41;5009171;28;20257;-53
2021/12/12 01:04:45;;;;;;;13.10;4.40;;;;;;;17.01;44.13;101974.53;5009760;28;20054;-52
2021/12/12 01:07:20;;;;;;;10.10;4.93;;;;;;;16.98;44.78;101972.09;5008444;28;20096;-49
2021/12/12 01:09:56;;;;;;;10.43;4.40;;;;;;;16.98;44.58;101968.56;5013992;28;20050;-51
2021/12/12 01:12:31;;;;;;;9.60;4.10;;;;;;;16.97;45.14;101975.75;5008699;28;20046;-53
2021/12/12 01:15:18;;;;;;;9.75;4.32;;;;;;;16.94;44.66;101969.75;5012681;28;20041;-49
2021/12/12 01:17:48;;;;;;;11.68;4.45;;;;;;;16.93;44.60;101976.94;5010461;28;20068;-51
2021/12/12 01:20:20;;;;;;;9.18;4.10;;;;;;;16.93;45.12;101973.44;5014108;28;20050;-51
2021/12/12 01:22:49;;;;;;;8.73;4.35;;;;;;;16.92;45.00;101971.69;5011255;28;20051;-50
2021/12/12 01:25:21;;;;;;;9.57;4.40;;;;;;;16.90;44.62;101970.97;5007957;28;20050;-49
2021/12/12 01:27:48;;;;;;;12.13;4.85;;;;;;;16.90;45.24;101973.66;5007954;28;20593;-50
2021/12/12 01:30:17;;;;;;;9.57;4.82;;;;;;;16.87;44.86;101969.38;5011819;28;20420;-49
2021/12/12 01:32:46;;;;;;;10.73;4.47;;;;;;;16.88;45.24;101976.44;5011128;28;20050;-47
2021/12/12 01:35:16;;;;;;;11.88;4.32;;;;;;;16.86;44.61;101975.72;5011557;28;20058;-52
2021/12/12 01:38:50;;;;;;;10.10;4.55;;;;;;;16.84;44.77;101976.78;5007657;28;20438;-52
2021/12/12 01:40:33;;;;;;;11.35;4.07;;;;;;;16.84;44.49;101977.63;5010760;28;20052;-52
2021/12/12 01:43:18;;;;;;;11.00;4.25;;;;;;;16.84;44.82;101979.47;5010190;28;20342;-49
2021/12/12 01:45:51;;;;;;;10.88;4.32;;;;;;;16.82;45.09;101978.75;5012343;28;20046;-51
2021/12/12 01:48:41;;;;;;;6.97;4.03;;;;;;;16.79;44.91;101977.16;5009352;28;20050;-49
2021/12/12 01:51:09;;;;;;;11.13;4.15;;;;;;;16.81;45.07;101971.69;5007441;28;20052;-49
2021/12/12 01:53:39;;;;;;;7.28;3.88;;;;;;;16.79;44.64;101958.41;5013618;28;20064;-50
2021/12/12 01:56:28;;;;;;;11.57;4.20;;;;;;;16.77;44.45;101966.56;5007802;28;20041;-50
2021/12/12 01:59:01;;;;;;;9.88;4.03;;;;;;;16.77;45.03;101958.53;5013169;28;20057;-49
2021/12/12 02:01:34;;;;;;;12.32;4.45;;;;;;;16.75;45.04;101965.81;5010569;28;20345;-49
2021/12/12 02:04:05;;;;;;;10.40;3.95;;;;;;;16.75;45.19;101959.63;5012916;28;20065;-52
2021/12/12 02:06:32;;;;;;;8.38;3.85;;;;;;;16.73;45.02;101959.75;5005585;28;20092;-52
2021/12/12 02:09:00;;;;;;;7.68;3.75;;;;;;;16.74;44.66;101952.56;5009914;28;20449;-51
2021/12/12 02:11:33;;;;;;;9.02;3.63;;;;;;;16.72;44.21;101941.06;5009498;28;20511;-51
2021/12/12 02:14:09;;;;;;;10.60;4.32;;;;;;;16.71;45.09;101937.53;5008244;28;20068;-51
2021/12/12 02:16:44;;;;;;;11.38;4.15;;;;;;;16.69;44.52;101931.47;5008950;28;20062;-52
2021/12/12 02:19:13;;;;;;;9.60;3.88;;;;;;;16.69;45.03;101935.97;5009166;28;20096;-48
2021/12/12 02:35:46;;;;;;;8.02;3.50;;;;;;;16.65;44.76;101954.09;5006394;28;20042;-49
2021/12/12 02:38:31;;;;;;;7.57;3.65;;;;;;;16.63;45.06;101952.50;5005116;28;20053;-51
2021/12/12 02:41:10;;;;;;;13.02;4.43;;;;;;;16.61;45.20;101949.09;5003951;28;20173;-52
2021/12/12 02:43:41;;;;;;;6.72;3.53;;;;;;;16.62;45.58;101961.50;5004301;28;20042;-49
2021/12/12 02:46:11;;;;;;;7.88;3.55;;;;;;;16.61;45.44;101957.97;5006180;28;20373;-51
2021/12/12 02:48:41;;;;;;;8.50;3.80;;;;;;;16.61;44.52;101957.13;5012148;28;20073;-50
2021/12/12 02:51:13;;;;;;;9.65;3.22;;;;;;;16.59;44.75;101951.88;5010896;28;20088;-49
2021/12/12 02:53:44;;;;;;;8.25;3.22;;;;;;;16.58;45.57;101936.78;5014086;28;20128;-51
2021/12/12 02:56:27;;;;;;;9.23;3.83;;;;;;;16.57;44.93;101936.91;5005097;28;20060;-52
2021/12/12 02:58:54;;;;;;;9.40;3.85;;;;;;;16.57;44.65;101948.47;5014863;28;20512;-51
2021/12/12 03:01:30;;;;;;;10.45;3.50;;;;;;;16.56;44.84;101925.31;5009718;28;20050;-52
2021/12/12 03:03:57;;;;;;;8.27;3.30;;;;;;;16.54;44.58;101933.50;5009070;28;20041;-52
2021/12/12 03:06:28;;;;;;;6.25;3.25;;;;;;;16.55;45.82;101918.28;5008591;28;20132;-48
2021/12/12 03:09:03;;;;;;;8.52;3.20;;;;;;;16.54;45.42;101927.28;5013450;28;20054;-50
2021/12/12 03:11:29;;;;;;;7.45;3.50;;;;;;;16.54;45.47;101913.91;5004373;28;20409;-48
2021/12/12 03:13:56;;;;;;;8.00;3.00;;;;;;;16.52;45.47;101916.72;5008541;28;20052;-52
2021/12/12 03:16:24;;;;;;;8.93;3.30;;;;;;;16.51;44.72;101914.13;5008548;28;20058;-50
2021/12/12 03:18:50;;;;;;;7.53;3.88;;;;;;;16.50;45.04;101917.78;5011106;28;20049;-50
2021/12/12 03:21:29;;;;;;;7.03;3.00;;;;;;;16.50;45.15;101925.81;5007489;28;20138;-50
2021/12/12 03:24:09;;;;;;;9.07;3.50;;;;;;;16.49;45.29;101926.78;5012295;28;20071;-50
2021/12/12 03:26:36;;;;;;;7.72;3.28;;;;;;;16.48;45.20;101923.28;5002744;28;20133;-51
2021/12/12 03:29:06;;;;;;;7.68;3.60;;;;;;;16.47;45.11;101923.38;5006457;28;20048;-52
2021/12/12 03:31:40;;;;;;;6.90;3.08;;;;;;;16.47;44.91;101924.22;5006380;28;20070;-51
2021/12/12 03:34:10;;;;;;;6.85;3.42;;;;;;;16.47;45.21;101920.69;5006836;28;20053;-50
2021/12/12 03:36:38;;;;;;;5.72;2.85;;;;;;;16.46;45.67;101921.66;5009489;28;20885;-52
2021/12/12 03:39:11;;;;;;;10.27;3.22;;;;;;;16.44;45.10;101923.59;5003364;28;21274;-49
2021/12/12 03:41:40;;;;;;;;;;;;;;;16.43;46.08;101927.25;5006977;28;20358;-46
2021/12/12 03:44:11;;;;;;;8.40;3.33;;;;;;;16.46;45.14;101919.84;5004824;28;20021;-52
2021/12/12 03:46:39;;;;;;;4.57;2.92;;;;;;;16.44;45.19;101932.50;5007298;28;20445;-49
2021/12/12 03:49:07;;;;;;;6.13;2.83;;;;;;;16.43;45.56;101935.28;5008294;28;20060;-48
2021/12/12 03:51:36;;;;;;;6.72;3.10;;;;;;;16.41;45.54;101938.06;5009360;28;20052;-49
2021/12/12 03:54:03;;;;;;;6.80;3.03;;;;;;;16.42;45.17;101928.22;5014320;28;20136;-50
2021/12/12 03:56:30;;;;;;;6.70;3.35;;;;;;;16.40;45.86;101923.00;5009230;28;20099;-48
2021/12/12 03:58:57;;;;;;;5.30;2.78;;;;;;;16.40;45.17;101936.38;5006366;28;20448;-52
2021/12/12 04:01:40;;;;;;;9.00;3.40;;;;;;;16.38;45.31;101935.63;5006912;28;20133;-49
2021/12/12 04:04:16;;;;;;;6.13;3.00;;;;;;;16.40;45.94;101932.81;5004003;28;20367;-51
2021/12/12 04:06:43;;;;;;;5.80;2.95;;;;;;;16.38;46.19;101924.94;5009973;28;20049;-51
2021/12/12 04:09:11;;;;;;;5.90;2.80;;;;;;;16.37;45.43;101917.88;5006960;28;20184;-48
2021/12/12 04:12:04;;;;;;;6.47;3.28;;;;;;;16.36;46.22;101918.84;5012311;28;20169;-52
2021/12/12 04:14:31;;;;;;;5.75;3.00;;;;;;;16.37;45.39;101920.56;5007433;28;20062;-48
2021/12/12 04:17:03;;;;;;;6.97;3.33;;;;;;;16.37;45.80;101923.22;5009216;28;20093;-51
2021/12/12 04:19:30;;;;;;;5.05;2.90;;;;;;;16.37;46.28;101919.69;5013257;28;20053;-52
2021/12/12 04:21:56;;;;;;;7.93;3.28;;;;;;;16.36;46.05;101916.19;5008894;28;20129;-52
2021/12/12 04:24:30;;;;;;;5.30;2.83;;;;;;;16.36;45.88;101916.19;5012740;28;20042;-49
2021/12/12 04:26:56;;;;;;;;;;;;;;;16.37;45.54;101919.69;5008631;28;20567;-48
2021/12/12 04:29:28;;;;;;;6.80;3.20;;;;;;;16.38;46.09;101918.72;5014018;28;19921;-51
2021/12/12 04:31:59;;;;;;;4.82;2.85;;;;;;;16.37;46.41;101914.34;5012424;28;20104;-51
2021/12/12 04:34:28;;;;;;;6.72;3.10;;;;;;;16.35;46.22;101922.47;5019007;28;20041;-52
2021/12/12 04:36:56;;;;;;;6.25;3.20;;;;;;;16.36;46.14;101926.00;5012075;28;20144;-51
2021/12/12 04:39:31;;;;;;;6.22;3.25;;;;;;;16.35;45.36;101927.81;5013021;28;20136;-48
2021/12/12 04:42:04;;;;;;;4.25;2.38;;;;;;;16.36;45.62;101923.31;5007280;28;20039;-49
2021/12/12 04:44:36;;;;;;;5.75;3.00;;;;;;;16.34;45.54;101922.59;5011155;28;21748;-48
2021/12/12 04:50:15;;;;;;;5.00;2.92;;;;;;;16.35;45.39;101916.28;5015453;28;20060;-49
2021/12/12 04:52:47;;;;;;;7.07;3.25;;;;;;;16.34;46.02;101923.44;5009812;28;20144;-47
2021/12/12 04:55:32;;;;;;;4.25;2.90;;;;;;;16.33;45.59;101926.25;5012857;28;20271;-49
2021/12/12 04:58:21;;;;;;;7.28;3.25;;;;;;;16.32;46.19;101930.72;5007330;28;20084;-50
2021/12/12 05:00:52;;;;;;;5.43;3.17;;;;;;;16.33;46.20;101931.59;5002275;28;20060;-48
2021/12/12 05:03:31;;;;;;;5.60;2.50;;;;;;;16.33;46.63;101932.47;5007167;28;20058;-55
2021/12/12 05:06:07;;;;;;;5.30;2.70;;;;;;;16.32;46.14;101938.75;5003550;28;20046;-50
2021/12/12 05:08:49;;;;;;;4.43;3.03;;;;;;;16.33;45.82;101942.31;5006810;28;20056;-53
2021/12/12 05:11:51;;;;;;;3.83;2.63;;;;;;;16.32;46.25;101945.94;5003786;28;20443;-49
2021/12/12 05:14:23;;;;;;;4.80;2.80;;;;;;;16.33;46.32;101947.66;5006135;28;20052;-49
2021/12/12 05:16:56;;;;;;;5.18;2.92;;;;;;;16.32;45.75;101946.78;5008477;28;20669;-50
2021/12/12 05:19:26;;;;;;;6.07;3.55;;;;;;;16.33;46.71;101934.28;5008288;28;20091;-49
2021/12/12 05:21:59;;;;;;;5.55;3.03;;;;;;;16.32;46.31;101933.41;5012440;28;21129;-50
2021/12/12 05:24:29;;;;;;;5.43;2.90;;;;;;;16.31;46.44;101949.56;5017447;28;20426;-50
2021/12/12 05:27:03;;;;;;;6.40;3.45;;;;;;;16.32;46.58;101937.91;5008256;28;20463;-49
2021/12/12 05:30:01;;;;;;;4.90;2.72;;;;;;;16.29;46.40;101937.19;5014088;28;20046;-49
2021/12/12 05:32:30;;;;;;;6.45;3.17;;;;;;;16.32;46.12;101940.56;5011049;28;20169;-52
2021/12/12 05:34:58;;;;;;;5.35;3.13;;;;;;;16.32;46.33;101940.56;5013029;28;20037;-48
2021/12/12 05:37:26;;;;;;;6.50;3.13;;;;;;;16.29;46.59;101931.84;5009992;28;20056;-49
2021/12/12 05:39:54;;;;;;;5.93;3.55;;;;;;;16.29;46.02;101934.50;5012375;28;20432;-49
2021/12/12 05:42:21;;;;;;;5.55;3.50;;;;;;;16.28;45.74;101938.16;5007257;28;20350;-52
2021/12/12 05:44:48;;;;;;;6.22;3.30;;;;;;;16.29;45.92;101925.63;5010376;28;20611;-49
2021/12/12 05:47:15;;;;;;;5.68;2.90;;;;;;;16.28;46.55;101943.50;5008962;28;20046;-48
2021/12/12 05:49:43;;;;;;;7.65;3.33;;;;;;;16.28;46.57;101940.84;5008046;28;20141;-51
2021/12/12 05:52:14;;;;;;;9.32;3.83;;;;;;;16.27;46.36;101939.09;5006820;28;20052;-47
2021/12/12 05:54:41;;;;;;;5.88;3.70;;;;;;;16.28;46.62;101935.47;5013436;28;20220;-47
2021/12/12 05:57:10;;;;;;;5.55;3.38;;;;;;;16.27;46.08;101943.59;5005473;28;20053;-51
2021/12/12 05:59:38;;;;;;;5.72;3.80;;;;;;;16.27;46.16;101936.44;5011724;28;20140;-50
2021/12/12 06:02:06;;;;;;;5.85;3.70;;;;;;;16.26;46.48;101937.41;5009572;28;20052;-51
2021/12/12 06:04:35;;;;;;;5.32;3.67;;;;;;;16.26;46.63;101947.25;5014577;28;20378;-49
2021/12/12 06:07:04;;;;;;;6.30;4.13;;;;;;;16.24;46.00;101943.81;5011563;28;20136;-52
2021/12/12 06:09:33;;;;;;;6.20;4.65;;;;;;;16.24;47.22;101942.03;5009662;28;20506;-52
2021/12/12 06:12:02;;;;;;;5.65;3.90;;;;;;;16.23;46.19;101956.34;5009706;28;20477;-51
2021/12/12 06:14:32;;;;;;;7.22;4.80;;;;;;;16.24;46.88;101973.25;5008054;28;20049;-47
2021/12/12 06:17:00;;;;;;;7.85;4.93;;;;;;;16.24;47.36;101962.56;5013065;28;20050;-51
2021/12/12 06:19:31;;;;;;;6.57;4.10;;;;;;;16.22;46.12;101961.81;5005718;28;20530;-51
2021/12/12 06:21:59;;;;;;;9.63;5.18;;;;;;;16.23;47.33;101959.03;5003460;28;20149;-49
2021/12/12 06:24:28;;;;;;;7.53;4.45;;;;;;;16.23;46.49;101961.69;5013662;28;20053;-50
2021/12/12 06:27:00;;;;;;;7.13;4.80;;;;;;;16.23;46.13;101963.53;5005403;28;20057;-49
2021/12/12 06:29:27;;;;;;;8.35;4.35;;;;;;;16.22;46.57;101956.47;5010904;28;20045;-49
2021/12/12 06:31:55;;;;;;;7.05;4.03;;;;;;;16.23;46.11;101955.50;5006316;28;20057;-51
2021/12/12 06:34:21;;;;;;;7.13;4.15;;;;;;;16.22;47.07;101957.31;5013616;28;20037;-49
2021/12/12 06:36:50;;;;;;;8.05;4.70;;;;;;;16.23;47.08;101960.84;5008409;28;20050;-51
2021/12/12 06:39:18;;;;;;;7.43;4.85;;;;;;;16.22;46.31;101961.81;5008692;28;20512;-52
2021/12/12 06:41:47;;;;;;;8.02;4.35;;;;;;;16.23;47.27;101969.72;5007885;28;20344;-51
2021/12/12 06:44:15;;;;;;;9.15;4.90;;;;;;;16.22;46.90;101969.84;5006282;28;20452;-50
2021/12/12 06:46:44;;;;;;;9.73;4.60;;;;;;;16.22;46.79;101965.34;5006197;28;20380;-50
2021/12/12 06:49:14;;;;;;;6.30;4.18;;;;;;;16.21;46.48;101966.31;5007722;28;20145;-49
2021/12/12 06:51:46;;;;;;;9.00;4.82;;;;;;;16.22;47.50;101968.03;5010410;28;20112;-52
2021/12/12 06:54:16;;;;;;;9.40;4.55;;;;;;;16.25;47.40;101978.50;5013572;28;20444;-48
2021/12/12 06:56:43;;;;;;;8.73;4.85;;;;;;;16.32;47.25;101978.88;5005063;28;20137;-46
2021/12/12 06:59:10;;;;;;;7.22;4.30;;;;;;;16.40;46.59;101975.63;5008728;28;20049;-49
2021/12/12 07:01:37;;;;;;;7.57;4.32;;;;;;;16.49;46.32;101964.25;5006020;28;20728;-49
2021/12/12 07:04:07;;;;;;;8.32;4.93;;;;;;;16.59;46.72;101967.94;5006142;28;20053;-50
2021/12/12 07:06:35;;;;;;;10.07;4.50;;;;;;;16.69;47.00;101971.63;5006160;28;20056;-48
2021/12/12 07:09:06;;;;;;;8.05;4.60;;;;;;;16.80;45.91;101978.84;5005829;28;20054;-48
2021/12/12 07:11:35;;;;;;;8.90;5.00;;;;;;;16.90;45.88;101968.28;5009578;28;20140;-51
2021/12/12 07:14:02;;;;;;;7.85;5.32;;;;;;;16.99;45.92;101980.97;5008732;28;20053;-50
2021/12/12 07:16:29;;;;;;;7.72;4.60;;;;;;;17.08;46.39;101974.03;5011544;28;20124;-48
2021/12/12 07:18:55;;;;;;;9.85;4.95;;;;;;;17.14;46.36;101976.25;5005721;28;20520;-49
2021/12/12 07:21:24;;;;;;;6.88;4.65;;;;;;;17.19;45.42;101980.25;5008081;28;20134;-48
2021/12/12 07:23:51;;;;;;;8.02;4.72;;;;;;;17.24;45.66;101978.06;5007338;28;20053;-51
2021/12/12 07:26:22;;;;;;;10.85;4.72;;;;;;;17.29;45.54;101977.72;5005062;28;20330;-47
2021/12/12 07:28:51;;;;;;;8.15;4.53;;;;;;;17.31;45.72;101977.59;5011951;28;20111;-51
2021/12/12 07:31:23;;;;;;;12.70;6.03;;;;;;;17.35;45.79;101990.63;5007148;28;20416;-51
2021/12/12 07:33:53;;;;;;;7.97;4.85;;;;;;;17.37;45.25;101995.88;5010388;28;20049;-52
2021/12/12 07:36:22;;;;;;;11.00;4.95;;;;;;;17.38;45.79;101997.59;5008513;28;20050;-48
2021/12/12 07:38:57;;;;;;;10.95;5.57;;;;;;;17.38;45.23;101989.53;5007856;28;20064;-51
2021/12/12 07:41:29;;;;;;;11.32;5.82;;;;;;;17.37;45.47;101998.56;5005578;28;20050;-48
2021/12/12 07:43:58;;;;;;;9.38;5.25;;;;;;;17.35;45.68;102003.19;5007794;28;20137;-48
2021/12/12 07:46:27;;;;;;;9.20;5.82;;;;;;;17.34;45.54;102001.47;5006963;28;20426;-50
2021/12/12 07:48:54;;;;;;;13.75;6.20;;;;;;;17.31;45.58;101999.88;5004203;28;20050;-49
2021/12/12 07:51:24;;;;;;;10.15;5.78;;;;;;;17.28;46.05;102009.00;5011269;28;20124;-49
2021/12/12 07:53:57;;;;;;;11.00;5.88;;;;;;;17.26;45.91;102008.28;5012297;28;20104;-47
2021/12/12 07:56:29;;;;;;;10.23;5.43;;;;;;;17.25;45.91;102008.41;5004980;28;20140;-49
2021/12/12 07:58:58;;;;;;;10.20;5.78;;;;;;;17.23;45.80;102010.34;5007335;28;20567;-48
2021/12/12 08:01:27;;;;;;;10.38;5.68;;;;;;;17.20;45.39;102019.47;5004822;28;20046;-51
2021/12/12 08:03:58;;;;;;;13.25;6.25;;;;;;;17.18;45.52;102018.75;5003784;28;20438;-49
2021/12/12 08:06:26;;;;;;;11.00;5.57;;;;;;;17.17;46.16;102019.72;5000582;28;20128;-49
2021/12/12 08:08:53;;;;;;;12.27;5.90;;;;;;;17.15;46.04;102035.06;5008457;28;20137;-48
2021/12/12 08:11:30;;;;;;;13.55;6.25;;;;;;;17.14;46.27;102032.50;5010467;28;20064;-47
2021/12/12 08:13:58;;;;;;;11.68;6.07;;;;;;;17.12;45.56;102040.63;5000189;28;20060;-53
2021/12/12 08:16:25;;;;;;;11.98;6.10;;;;;;;17.11;46.15;102041.63;5001453;28;20068;-48
2021/12/12 08:18:55;;;;;;;13.20;6.50;;;;;;;17.09;45.93;102043.59;5003208;28;20054;-47
2021/12/12 08:21:22;;;;;;;13.90;6.15;;;;;;;17.07;45.87;102041.97;5009867;28;20050;-51
2021/12/12 08:23:50;;;;;;;12.15;6.05;;;;;;;17.06;46.08;102046.50;5007787;28;20144;-47
2021/12/12 08:26:18;;;;;;;14.43;6.63;;;;;;;17.05;46.38;102055.50;5007128;28;20137;-48
2021/12/12 08:28:45;;;;;;;11.70;6.25;;;;;;;17.02;46.59;102053.91;5003787;28;20134;-51
2021/12/12 08:31:13;;;;;;;12.43;6.43;;;;;;;17.00;46.56;102046.94;5002443;28;20065;-51
2021/12/12 08:33:40;;;;;;;12.65;6.47;;;;;;;17.00;46.39;102057.66;5007233;28;20046;-52
2021/12/12 08:36:08;;;;;;;13.05;6.78;;;;;;;16.99;46.64;102061.31;5002773;28;20133;-50
2021/12/12 08:38:36;;;;;;;13.02;6.70;;;;;;;16.98;46.46;102062.28;5006155;28;20129;-51
2021/12/12 08:41:05;;;;;;;16.13;7.85;;;;;;;16.96;46.33;102064.22;5005750;28;20451;-51
2021/12/12 08:43:32;;;;;;;14.38;7.90;;;;;;;16.97;46.88;102060.59;5002900;28;20125;-51
2021/12/12 08:46:08;;;;;;;15.88;8.55;;;;;;;16.98;47.31;102070.31;5005314;28;20077;-48
2021/12/12 08:48:42;;;;;;;17.58;8.82;;;;;;;17.00;47.47;102071.03;5003393;28;20050;-52
2021/12/12 08:51:29;;;;;;;24.40;10.35;;;;;;;17.03;47.51;102065.47;5005151;28;20120;-57
2021/12/12 08:54:03;;;;;;;18.85;10.57;;;;;;;17.07;47.99;102074.97;5007585;28;20381;-60
2021/12/12 08:56:44;;;;;;;;;;;;;;;17.10;47.65;102084.63;5007395;28;20727;-64
2021/12/12 08:59:16;;;;;;;24.50;12.20;;;;;;;17.13;47.70;102079.03;5008859;28;19929;-64
2021/12/12 09:01:44;;;;;;;22.70;11.95;;;;;;;17.12;47.92;102085.34;5005469;28;20137;-64
2021/12/12 09:04:12;;;;;;;25.73;11.80;;;;;;;17.10;47.54;102088.13;5009764;28;20081;-62
2021/12/12 09:07:02;;;;;;;26.08;12.25;;;;;;;17.09;48.13;102091.81;5006694;28;20153;-62
2021/12/12 09:09:40;;;;;;;25.90;13.50;;;;;;;17.08;47.60;102102.59;5003113;28;20046;-62
2021/12/12 09:12:18;;;;;;;30.55;14.52;;;;;;;17.05;47.96;102103.72;5003702;28;20050;-63
2021/12/12 09:15:01;;;;;;;27.17;14.40;;;;;;;17.03;47.70;102105.63;5009867;28;20038;-62
2021/12/12 09:17:31;;;;;;;30.23;16.20;;;;;;;17.00;48.07;102104.06;5001560;28;20046;-62
2021/12/12 09:20:19;;;;;;;32.25;16.33;;;;;;;16.98;48.47;102107.81;5006485;28;20065;-62
2021/12/12 09:22:59;;;;;;;38.75;19.05;;;;;;;16.97;48.09;102111.47;5009822;28;20074;-62
2021/12/12 09:25:50;;;;;;;41.25;20.95;;;;;;;16.95;48.26;102113.41;5009790;28;20042;-62
2021/12/12 09:28:32;;;;;;;41.60;21.55;;;;;;;16.93;47.86;102123.41;5007861;28;20133;-62
2021/12/12 09:31:09;;;;;;;49.05;23.55;;;;;;;16.91;47.75;102118.13;5006682;28;20042;-61
2021/12/12 09:33:46;;;;;;;46.22;24.20;;;;;;;16.90;48.83;102112.91;5010864;28;20080;-62
2021/12/12 09:36:17;;;;;;;50.45;24.50;;;;;;;16.88;47.83;102126.38;5007013;28;20050;-62
2021/12/12 09:38:50;;;;;;;45.65;24.35;;;;;;;16.87;48.46;102123.84;5007016;28;20077;-62
2021/12/12 09:41:25;;;;;;;47.13;24.63;;;;;;;16.86;48.00;102122.13;5008158;28;20456;-62
2021/12/12 09:44:17;;;;;;;49.95;25.92;;;;;;;16.85;48.63;102123.13;5005285;28;20157;-62
2021/12/12 09:47:11;;;;;;;49.08;25.48;;;;;;;16.84;48.30;102118.69;5007980;28;20430;-63
2021/12/12 09:53:16;;;;;;;53.53;27.00;;;;;;;16.83;48.61;102125.88;5005707;28;20046;-63
2021/12/12 09:56:03;;;;;;;51.42;26.50;;;;;;;16.82;48.76;102120.66;5010839;28;20137;-63
2021/12/12 09:58:42;;;;;;;49.53;26.27;;;;;;;16.80;48.42;102126.09;5006259;28;20046;-63
2021/12/12 10:01:41;;;;;;;50.38;25.88;;;;;;;16.80;48.39;102128.78;5009738;28;20054;-64
2021/12/12 10:04:23;;;;;;;48.28;25.27;;;;;;;16.79;48.40;102127.09;5009100;28;20168;-62
2021/12/12 10:07:04;;;;;;;47.00;24.27;;;;;;;16.78;48.16;102128.91;5006036;28;20049;-62
2021/12/12 10:09:41;;;;;;;45.35;25.63;;;;;;;16.77;48.90;102119.19;5008699;28;20122;-62
2021/12/12 10:12:19;;;;;;;46.53;24.38;;;;;;;16.76;49.02;102122.84;5014151;28;20056;-63
2021/12/12 10:15:04;;;;;;;43.60;23.60;;;;;;;16.75;48.92;102121.09;5009283;28;20168;-62
2021/12/12 10:17:48;;;;;;;45.17;24.38;;;;;;;16.75;48.05;102114.91;5010005;28;20136;-62
2021/12/12 10:20:24;;;;;;;49.10;26.38;;;;;;;16.74;48.62;102123.91;5006221;28;20149;-62
2021/12/12 10:23:20;;;;;;;48.78;25.45;;;;;;;16.72;49.31;102120.44;5008077;28;20050;-62
2021/12/12 10:25:52;;;;;;;47.83;26.20;;;;;;;16.72;48.61;102125.78;5012654;28;20594;-63
2021/12/12 10:28:22;;;;;;;47.28;25.85;;;;;;;16.72;48.86;102115.97;5004590;28;20137;-63
2021/12/12 10:30:59;;;;;;;48.85;27.02;;;;;;;16.71;48.82;102122.25;5007140;28;20360;-62
2021/12/12 10:33:37;;;;;;;49.53;26.88;;;;;;;16.71;48.40;102124.09;5012227;28;20608;-63
2021/12/12 10:40:03;;;;;;;51.08;27.00;;;;;;;16.69;49.60;102118.84;5006682;28;20052;-64
2021/12/12 10:42:43;;;;;;;51.67;27.58;;;;;;;16.69;48.86;102126.03;5002144;28;20434;-63
2021/12/12 10:45:28;;;;;;;48.03;24.42;;;;;;;16.67;49.39;102128.81;5006326;28;20069;-63
2021/12/12 10:48:06;;;;;;;50.08;26.38;;;;;;;16.68;49.00;102127.88;5007077;28;20046;-63
2021/12/12 10:50:48;;;;;;;49.13;25.92;;;;;;;16.68;48.98;102127.00;5009361;28;20142;-63
2021/12/12 10:53:27;;;;;;;44.22;23.58;;;;;;;16.68;49.51;102130.53;5002266;28;20050;-64
2021/12/12 10:56:25;;;;;;;42.50;23.20;;;;;;;16.67;48.61;102123.47;5005490;28;20050;-62
2021/12/12 10:58:58;;;;;;;42.55;23.05;;;;;;;16.69;48.91;102131.41;5002369;28;20050;-62
2021/12/12 11:01:33;;;;;;;40.00;21.80;;;;;;;16.68;49.28;102129.66;5007221;28;20084;-64
2021/12/12 11:04:10;;;;;;;44.33;24.20;;;;;;;16.68;48.77;102129.66;5005901;28;20054;-63
2021/12/12 11:06:40;;;;;;;44.10;22.70;;;;;;;16.70;48.63;102135.78;5004568;28;20038;-63
2021/12/12 11:09:22;;;;;;;43.25;23.17;;;;;;;16.68;49.13;102125.19;5005171;28;20128;-64
2021/12/12 11:12:20;;;;;;;39.85;22.25;;;;;;;16.68;48.79;102124.31;5006986;28;20089;-63
2021/12/12 11:15:15;;;;;;;40.88;22.48;;;;;;;16.67;49.36;102134.16;5006951;28;20042;-63
2021/12/12 11:17:44;;;;;;;40.10;21.95;;;;;;;16.68;48.51;102140.38;5007086;28;20387;-63
2021/12/12 11:20:18;;;;;;;41.72;21.55;;;;;;;16.68;48.78;102129.66;5005386;28;20085;-63
2021/12/12 11:22:52;;;;;;;37.80;22.25;;;;;;;16.67;48.80;102139.53;5006152;28;20165;-63
2021/12/12 11:25:30;;;;;;;40.90;21.63;;;;;;;16.68;48.51;102137.69;5004056;28;20104;-65
2021/12/12 11:28:01;;;;;;;42.00;22.30;;;;;;;16.69;48.72;102129.56;5003288;28;20143;-63
2021/12/12 11:30:35;;;;;;;41.83;23.05;;;;;;;16.70;48.64;102135.78;5010629;28;20093;-63
2021/12/12 11:33:06;;;;;;;44.78;23.33;;;;;;;16.72;49.48;102128.47;5008455;28;20453;-63
2021/12/12 11:35:33;;;;;;;41.75;22.90;;;;;;;16.76;48.90;102128.19;5006377;28;20056;-62
2021/12/12 11:38:25;;;;;;;44.92;23.63;;;;;;;16.82;48.86;102120.66;5006768;28;20597;-62
2021/12/12 11:41:05;;;;;;;41.17;22.23;;;;;;;16.91;48.52;102131.53;5007830;28;20377;-61
2021/12/12 11:43:41;;;;;;;44.35;24.15;;;;;;;16.99;49.19;102129.13;5005285;28;20137;-61
2021/12/12 11:46:34;;;;;;;56.05;30.08;;;;;;;17.09;49.10;102128.44;5004715;28;20049;-62
2021/12/12 11:49:23;;;;;;;54.43;31.67;;;;;;;17.20;49.78;102144.53;5006076;28;21428;-61
2021/12/12 11:52:01;;;;;;;52.72;29.10;;;;;;;17.29;49.40;102143.88;5004010;28;20639;-61
2021/12/12 11:54:42;;;;;;;58.53;31.98;;;;;;;17.39;48.83;102142.16;5006863;28;20042;-61
2021/12/12 11:57:13;;;;;;;63.30;33.97;;;;;;;17.47;48.88;102141.59;5003520;28;20136;-62
2021/12/12 12:00:15;;;;;;;62.53;33.08;;;;;;;17.55;48.82;102144.53;5006004;28;20357;-60
2021/12/12 12:03:06;;;;;;;66.63;35.63;;;;;;;17.64;48.88;102138.44;5006326;28;20057;-60
2021/12/12 12:05:44;;;;;;;66.82;35.97;;;;;;;17.70;48.62;102135.28;5004935;28;20054;-61
2021/12/12 12:08:44;;;;;;;70.63;39.53;;;;;;;17.76;48.55;102148.25;5004965;28;20077;-60
2021/12/12 12:11:49;;;;;;;74.00;40.60;;;;;;;17.82;48.67;102154.97;5007347;28;20595;-60
2021/12/12 12:14:51;;;;;;;75.90;41.40;;;;;;;17.86;48.53;102155.59;5006108;28;20045;-61